createdAt,value
2022-10-17T00:01:08.821Z,7.82
2022-10-17T00:03:37.528Z,6.90
2022-10-17T00:06:13.335Z,9.18
2022-10-17T00:08:42.090Z,7.50
2022-10-17T00:11:15.093Z,6.47
2022-10-17T00:13:45.169Z,6.78
2022-10-17T00:16:13.223Z,7.05
2022-10-17T00:18:41.693Z,6.68
2022-10-17T00:21:17.209Z,6.13
2022-10-17T00:23:45.337Z,6.70
2022-10-17T00:26:12.775Z,6.10
2022-10-17T00:28:40.507Z,6.65
2022-10-17T00:31:08.720Z,6.38
2022-10-17T00:33:36.584Z,7.30
2022-10-17T00:36:10.363Z,6.82
2022-10-17T00:38:37.984Z,8.23
2022-10-17T00:41:06.177Z,6.55
2022-10-17T00:43:53.890Z,6.78
2022-10-17T00:46:22.814Z,8.18
2022-10-17T00:48:52.945Z,7.40
2022-10-17T00:51:25.617Z,6.35
2022-10-17T00:53:53.210Z,6.65
2022-10-17T00:56:22.222Z,6.55
2022-10-17T00:58:50.605Z,7.40
2022-10-17T01:01:18.177Z,6.40
2022-10-17T01:03:45.694Z,6.57
2022-10-17T01:06:13.223Z,7.15
2022-10-17T01:08:42.209Z,7.53
2022-10-17T01:11:34.012Z,6.05
2022-10-17T01:14:39.737Z,6.38
2022-10-17T01:17:30.730Z,6.82
2022-10-17T01:20:22.814Z,7.47
2022-10-17T01:23:22.469Z,6.45
2022-10-17T01:26:08.314Z,6.10
2022-10-17T01:28:57.358Z,7.35
2022-10-17T01:31:37.956Z,8.27
2022-10-17T01:34:12.640Z,6.35
2022-10-17T01:36:50.022Z,8.05
2022-10-17T01:39:38.375Z,6.60
2022-10-17T01:42:25.460Z,8.05
2022-10-17T01:44:58.724Z,6.85
2022-10-17T01:47:31.013Z,6.65
2022-10-17T01:50:11.043Z,6.97
2022-10-17T01:52:46.826Z,6.77
2022-10-17T01:55:36.660Z,6.93
2022-10-17T01:58:10.314Z,7.07
2022-10-17T02:00:40.230Z,7.47
2022-10-17T02:03:10.097Z,8.02
2022-10-17T02:05:42.861Z,6.75
2022-10-17T02:08:11.353Z,7.38
2022-10-17T02:11:04.827Z,8.75
2022-10-17T02:13:35.163Z,7.80
2022-10-17T02:16:15.924Z,7.05
2022-10-17T02:19:18.956Z,7.13
2022-10-17T02:22:06.376Z,9.27
2022-10-17T02:24:49.695Z,9.55
2022-10-17T02:27:23.766Z,7.32
2022-10-17T02:29:59.366Z,8.50
2022-10-17T02:32:37.392Z,7.68
2022-10-17T02:35:09.629Z,7.80
2022-10-17T02:37:39.072Z,7.15
2022-10-17T02:40:08.929Z,7.97
2022-10-17T02:42:41.250Z,7.43
2022-10-17T02:45:10.157Z,9.37
2022-10-17T02:47:42.311Z,6.95
2022-10-17T02:50:10.421Z,8.15
2022-10-17T02:53:01.813Z,9.05
2022-10-17T02:55:36.574Z,9.48
2022-10-17T02:58:09.212Z,8.33
2022-10-17T03:00:42.107Z,8.07
2022-10-17T03:03:28.842Z,12.27
2022-10-17T03:06:00.539Z,6.45
2022-10-17T03:08:28.264Z,7.82
2022-10-17T03:10:56.940Z,8.63
2022-10-17T03:13:25.991Z,9.65
2022-10-17T03:15:53.535Z,8.75
2022-10-17T03:18:20.980Z,9.80
2022-10-17T03:20:50.413Z,8.20
2022-10-17T03:23:17.875Z,7.78
2022-10-17T03:25:46.617Z,8.00
2022-10-17T03:28:15.966Z,8.90
2022-10-17T03:30:44.527Z,11.95
2022-10-17T03:33:11.980Z,8.30
2022-10-17T03:35:43.076Z,8.33
2022-10-17T03:38:10.925Z,9.75
2022-10-17T03:40:38.420Z,7.78
2022-10-17T03:43:06.194Z,9.65
2022-10-17T03:45:33.989Z,7.88
2022-10-17T03:48:02.106Z,10.93
2022-10-17T03:50:30.946Z,7.57
2022-10-17T03:53:00.399Z,7.30
2022-10-17T03:55:28.064Z,9.65
2022-10-17T03:57:58.331Z,7.70
2022-10-17T04:00:25.830Z,8.02
2022-10-17T04:02:58.756Z,7.47
2022-10-17T04:05:27.027Z,8.52
2022-10-17T04:07:54.612Z,7.30
2022-10-17T04:10:31.826Z,9.18
2022-10-17T04:12:59.826Z,7.95
2022-10-17T04:15:27.294Z,7.55
2022-10-17T04:17:55.359Z,7.38
2022-10-17T04:20:23.082Z,7.90
2022-10-17T04:22:51.392Z,8.88
2022-10-17T04:25:19.091Z,10.25
2022-10-17T04:27:49.424Z,13.70
2022-10-17T04:30:17.488Z,9.45
2022-10-17T04:32:46.088Z,7.13
2022-10-17T04:35:21.052Z,9.02
2022-10-17T04:37:56.814Z,8.77
2022-10-17T04:40:25.767Z,8.63
2022-10-17T04:42:54.066Z,9.80
2022-10-17T04:45:26.519Z,8.43
2022-10-17T04:48:00.987Z,9.40
2022-10-17T04:50:30.586Z,8.35
2022-10-17T04:53:28.800Z,10.93
2022-10-17T04:55:56.312Z,9.60
2022-10-17T04:58:24.874Z,9.60
2022-10-17T05:00:52.771Z,6.60
2022-10-17T05:03:23.551Z,9.23
2022-10-17T05:05:51.327Z,8.77
2022-10-17T05:08:18.886Z,8.70
2022-10-17T05:10:46.621Z,7.38
2022-10-17T05:13:15.020Z,8.02
2022-10-17T05:15:42.899Z,8.13
2022-10-17T05:18:11.863Z,8.35
2022-10-17T05:20:49.099Z,9.02
2022-10-17T05:23:20.900Z,7.65
2022-10-17T05:26:16.222Z,7.20
2022-10-17T05:28:44.668Z,7.88
2022-10-17T05:31:13.061Z,6.68
2022-10-17T05:34:23.199Z,7.07
2022-10-17T05:36:52.478Z,6.93
2022-10-17T05:39:44.456Z,11.50
2022-10-17T05:42:37.462Z,7.32
2022-10-17T05:45:08.426Z,7.57
2022-10-17T05:47:36.208Z,7.50
2022-10-17T05:50:24.960Z,8.77
2022-10-17T05:53:28.575Z,8.75
2022-10-17T05:56:21.139Z,9.48
2022-10-17T05:58:55.208Z,9.00
2022-10-17T06:01:51.087Z,7.97
2022-10-17T06:04:21.687Z,9.02
2022-10-17T06:07:09.430Z,8.63
2022-10-17T06:12:23.435Z,7.70
2022-10-17T06:14:51.501Z,8.60
2022-10-17T06:17:23.946Z,10.82
2022-10-17T06:19:58.856Z,7.50
2022-10-17T06:22:26.615Z,9.65
2022-10-17T06:25:15.625Z,7.47
2022-10-17T06:27:48.104Z,7.30
2022-10-17T06:30:15.783Z,9.18
2022-10-17T06:32:43.546Z,8.80
2022-10-17T06:35:11.576Z,8.00
2022-10-17T06:37:52.853Z,8.27
2022-10-17T06:40:31.316Z,8.40
2022-10-17T06:43:01.814Z,6.75
2022-10-17T06:45:44.039Z,7.43
2022-10-17T06:48:41.290Z,7.47
2022-10-17T06:51:42.353Z,7.63
2022-10-17T06:54:30.354Z,7.78
2022-10-17T07:02:13.823Z,7.43
2022-10-17T07:04:55.986Z,7.85
2022-10-17T07:10:23.613Z,7.90
2022-10-17T07:12:54.014Z,6.82
2022-10-17T07:15:31.288Z,6.75
2022-10-17T07:17:59.037Z,7.20
2022-10-17T07:20:29.473Z,6.23
2022-10-17T07:23:02.131Z,7.35
2022-10-17T07:25:36.495Z,5.97
2022-10-17T07:28:29.117Z,10.05
2022-10-17T07:31:39.990Z,6.20
2022-10-17T07:34:31.657Z,8.90
2022-10-17T07:37:12.819Z,8.40
2022-10-17T07:39:51.454Z,7.18
2022-10-17T07:42:21.159Z,8.82
2022-10-17T07:44:51.773Z,10.15
2022-10-17T07:47:22.997Z,8.33
2022-10-17T07:49:56.706Z,11.13
2022-10-17T07:52:24.642Z,7.68
2022-10-17T07:54:56.742Z,7.20
2022-10-17T07:57:29.934Z,7.88
2022-10-17T08:00:15.358Z,8.23
2022-10-17T08:02:45.521Z,8.13
2022-10-17T08:05:16.132Z,7.03
2022-10-17T08:07:52.618Z,7.90
2022-10-17T08:10:20.822Z,6.93
2022-10-17T08:15:40.368Z,6.70
2022-10-17T08:18:12.154Z,7.32
2022-10-17T08:20:45.591Z,7.68
2022-10-17T08:23:13.383Z,6.50
2022-10-17T08:25:40.939Z,5.57
2022-10-17T08:31:04.049Z,6.40
2022-10-17T08:33:49.717Z,7.63
2022-10-17T08:36:41.380Z,5.57
2022-10-17T08:39:08.951Z,5.40
2022-10-17T08:42:16.882Z,5.65
2022-10-17T08:45:21.592Z,5.82
2022-10-17T08:48:31.117Z,7.00
2022-10-17T08:51:44.211Z,5.75
2022-10-17T08:54:59.704Z,6.20
2022-10-17T08:57:36.917Z,6.70
2022-10-17T09:04:33.942Z,6.78
2022-10-17T09:07:36.331Z,6.53
2022-10-17T09:10:55.371Z,6.23
2022-10-17T09:13:45.879Z,5.65
2022-10-17T09:17:04.644Z,8.27
2022-10-17T09:19:40.687Z,4.82
2022-10-17T09:22:41.183Z,5.60
2022-10-17T09:32:33.900Z,5.65
2022-10-17T09:35:23.470Z,6.65
2022-10-17T09:37:58.049Z,6.00
2022-10-17T09:40:33.198Z,5.87
2022-10-17T09:43:33.643Z,6.32
2022-10-17T09:46:50.293Z,7.70
2022-10-17T09:49:42.913Z,5.82
2022-10-17T09:52:59.364Z,5.55
2022-10-17T09:56:28.344Z,6.77
2022-10-17T10:02:21.620Z,6.15
2022-10-17T10:08:51.581Z,5.57
2022-10-17T10:12:17.811Z,6.40
2022-10-17T11:56:41.842Z,6.03
2022-10-17T12:52:29.865Z,4.87
2022-10-17T12:55:17.028Z,6.22
2022-10-17T12:58:29.945Z,5.72
2022-10-17T13:01:23.151Z,5.95
2022-10-17T13:03:53.071Z,5.78
2022-10-17T13:06:24.861Z,7.47
2022-10-17T13:09:04.127Z,6.95
2022-10-17T13:11:34.342Z,7.95
2022-10-17T13:14:09.713Z,6.45
2022-10-17T13:16:52.783Z,5.40
2022-10-17T13:19:26.098Z,4.97
2022-10-17T13:22:07.301Z,7.20
2022-10-17T13:24:38.128Z,7.03
2022-10-17T13:27:21.380Z,7.38
2022-10-17T13:29:49.607Z,5.70
2022-10-17T13:32:17.144Z,6.53
2022-10-17T13:34:44.635Z,7.25
2022-10-17T13:37:15.742Z,7.00
2022-10-17T13:39:55.118Z,6.10
2022-10-17T13:42:30.768Z,5.85
2022-10-17T13:44:59.866Z,5.57
2022-10-17T13:47:36.925Z,5.70
2022-10-17T13:50:12.701Z,6.78
2022-10-17T13:52:48.740Z,5.70
2022-10-17T13:55:20.433Z,5.32
2022-10-17T13:57:48.609Z,7.70
2022-10-17T14:00:22.097Z,5.63
2022-10-17T14:02:49.701Z,6.47
2022-10-17T14:05:23.520Z,5.70
2022-10-17T14:08:11.427Z,7.80
2022-10-17T14:10:42.612Z,7.70
2022-10-17T14:13:24.313Z,6.28
2022-10-17T14:15:57.006Z,9.07
2022-10-17T14:18:36.427Z,9.02
2022-10-17T14:24:16.033Z,7.63
2022-10-17T14:26:59.466Z,8.30
2022-10-17T14:29:30.478Z,5.78
2022-10-17T14:32:03.023Z,7.93
2022-10-17T14:34:35.153Z,6.45
2022-10-17T14:37:09.286Z,7.53
2022-10-17T14:39:38.752Z,9.90
2022-10-17T14:42:06.496Z,6.75
2022-10-17T14:44:36.994Z,6.80
2022-10-17T14:47:41.650Z,6.50
2022-10-17T14:50:13.136Z,11.80
2022-10-17T14:52:41.109Z,15.02
2022-10-17T14:55:39.556Z,10.70
2022-10-17T14:58:17.975Z,16.65
2022-10-17T15:00:45.546Z,11.23
2022-10-17T15:03:13.986Z,10.80
2022-10-17T15:05:41.775Z,11.40
2022-10-17T15:08:20.575Z,13.15
2022-10-17T15:10:50.148Z,21.30
2022-10-17T15:13:39.965Z,28.95
2022-10-17T15:16:23.411Z,24.37
2022-10-17T15:18:51.866Z,24.35
2022-10-17T15:21:40.559Z,22.35
2022-10-17T15:24:12.138Z,16.83
2022-10-17T15:26:40.609Z,19.95
2022-10-17T15:29:08.238Z,14.83
2022-10-17T15:31:36.227Z,16.77
2022-10-17T15:34:04.822Z,13.07
2022-10-17T15:36:40.803Z,22.20
2022-10-17T15:39:10.143Z,22.75
2022-10-17T15:41:37.984Z,15.80
2022-10-17T15:44:05.611Z,18.17
2022-10-17T15:46:35.988Z,18.15
2022-10-17T15:49:08.605Z,15.13
2022-10-17T15:51:36.254Z,15.55
2022-10-17T15:54:05.945Z,12.93
2022-10-17T15:56:40.597Z,18.20
2022-10-17T15:59:15.536Z,16.25
2022-10-17T16:01:43.208Z,16.35
2022-10-17T16:04:18.141Z,15.88
2022-10-17T16:06:45.748Z,16.47
2022-10-17T16:09:13.697Z,13.35
2022-10-17T16:11:43.718Z,16.85
2022-10-17T16:14:16.170Z,18.08
2022-10-17T16:16:43.891Z,24.45
2022-10-17T16:19:11.962Z,14.53
2022-10-17T16:21:41.457Z,25.02
2022-10-17T16:24:13.171Z,18.00
2022-10-17T16:26:41.301Z,16.98
2022-10-17T16:29:11.822Z,19.98
2022-10-17T16:31:43.771Z,18.37
2022-10-17T16:34:13.805Z,18.88
2022-10-17T16:36:41.454Z,17.33
2022-10-17T16:39:09.133Z,19.20
2022-10-17T16:41:40.152Z,21.33
2022-10-17T16:44:11.428Z,11.33
2022-10-17T16:46:41.758Z,12.68
2022-10-17T16:49:10.486Z,12.63
2022-10-17T16:51:38.073Z,18.98
2022-10-17T16:54:05.586Z,13.55
2022-10-17T16:56:33.877Z,10.50
2022-10-17T16:59:02.380Z,12.23
2022-10-17T17:01:29.836Z,13.82
2022-10-17T17:03:58.002Z,13.45
2022-10-17T17:06:29.062Z,16.92
2022-10-17T17:08:57.815Z,14.53
2022-10-17T17:11:27.257Z,11.07
2022-10-17T17:13:58.549Z,13.52
2022-10-17T17:16:28.007Z,15.88
2022-10-17T17:19:00.732Z,12.73
2022-10-17T17:21:28.502Z,10.63
2022-10-17T17:23:59.477Z,10.23
2022-10-17T17:26:29.051Z,11.80
2022-10-17T17:28:59.355Z,13.82
2022-10-17T17:31:30.505Z,10.80
2022-10-17T17:33:58.763Z,11.37
2022-10-17T17:36:29.386Z,10.95
2022-10-17T17:39:04.751Z,10.07
2022-10-17T17:41:33.133Z,10.38
2022-10-17T17:44:01.749Z,11.70
2022-10-17T17:46:29.405Z,10.80
2022-10-17T17:48:57.187Z,9.80
2022-10-17T17:51:29.421Z,8.85
2022-10-17T17:54:00.000Z,13.77
2022-10-17T17:56:32.540Z,9.57
2022-10-17T17:59:02.428Z,14.23
2022-10-17T18:01:36.658Z,11.43
2022-10-17T18:04:07.290Z,11.75
2022-10-17T18:06:35.308Z,15.43
2022-10-17T18:09:02.945Z,14.32
2022-10-17T18:11:30.520Z,17.07
2022-10-17T18:14:00.418Z,13.30
2022-10-17T18:16:29.458Z,12.88
2022-10-17T18:18:58.754Z,13.80
2022-10-17T18:21:27.856Z,15.07
2022-10-17T18:23:55.312Z,15.47
2022-10-17T18:26:23.447Z,17.77
2022-10-17T18:28:51.059Z,17.75
2022-10-17T18:31:24.542Z,17.60
2022-10-17T18:33:53.711Z,18.60
2022-10-17T18:36:22.330Z,20.37
2022-10-17T18:38:50.422Z,17.90
2022-10-17T18:41:20.371Z,15.55
2022-10-17T18:43:49.153Z,16.48
2022-10-17T18:46:29.356Z,15.38
2022-10-17T18:48:56.988Z,14.93
2022-10-17T18:51:25.929Z,15.20
2022-10-17T18:53:58.840Z,15.95
2022-10-17T18:56:27.065Z,18.08
2022-10-17T18:58:55.001Z,16.80
2022-10-17T19:01:26.673Z,19.43
2022-10-17T19:03:57.613Z,16.02
2022-10-17T19:06:30.042Z,15.45
2022-10-17T19:09:01.586Z,22.60
2022-10-17T19:11:31.115Z,15.77
2022-10-17T19:14:01.204Z,15.47
2022-10-17T19:16:31.475Z,20.42
2022-10-17T19:19:14.305Z,21.23
2022-10-17T19:21:44.814Z,18.10
2022-10-17T19:24:19.565Z,16.20
2022-10-17T19:26:50.458Z,15.10
2022-10-17T19:29:18.564Z,17.33
2022-10-17T19:31:47.091Z,20.80
2022-10-17T19:34:16.165Z,15.75
2022-10-17T19:36:43.728Z,14.85
2022-10-17T19:39:14.297Z,15.00
2022-10-17T19:41:46.311Z,14.43
2022-10-17T19:44:14.231Z,15.45
2022-10-17T19:46:45.562Z,13.55
2022-10-17T19:49:13.878Z,12.27
2022-10-17T19:51:41.635Z,13.73
2022-10-17T19:54:09.862Z,13.68
2022-10-17T19:56:43.386Z,14.93
2022-10-17T19:59:13.835Z,12.70
2022-10-17T20:01:41.729Z,11.43
2022-10-17T20:04:11.102Z,10.53
2022-10-17T20:06:39.766Z,11.07
2022-10-17T20:09:11.023Z,11.95
2022-10-17T20:11:41.524Z,11.75
2022-10-17T20:14:09.041Z,10.85
2022-10-17T20:16:37.096Z,9.63
2022-10-17T20:19:10.494Z,11.93
2022-10-17T20:21:39.835Z,11.88
2022-10-17T20:24:10.147Z,10.77
2022-10-17T20:26:39.349Z,10.05
2022-10-17T20:29:16.707Z,8.43
2022-10-17T20:31:45.706Z,9.00
2022-10-17T20:34:17.689Z,9.00
2022-10-17T20:36:46.032Z,10.27
2022-10-17T20:39:15.227Z,8.32
2022-10-17T20:41:43.587Z,8.77
2022-10-17T20:44:11.772Z,8.50
2022-10-17T20:47:00.830Z,9.68
2022-10-17T20:49:27.508Z,10.27
2022-10-17T20:51:54.961Z,8.55
2022-10-17T20:54:22.657Z,8.43
2022-10-17T20:56:51.191Z,11.35
2022-10-17T20:59:18.693Z,9.48
2022-10-17T21:01:47.288Z,9.98
2022-10-17T21:04:44.700Z,8.38
2022-10-17T21:07:02.560Z,8.47
2022-10-17T21:09:31.440Z,9.07
2022-10-17T21:11:58.861Z,9.30
2022-10-17T21:14:26.525Z,8.23
2022-10-17T21:16:53.950Z,14.32
2022-10-17T21:19:24.163Z,8.83
2022-10-17T21:21:51.661Z,12.98
2022-10-17T21:24:20.974Z,8.18
2022-10-17T21:26:55.638Z,9.55
2022-10-17T21:29:26.239Z,11.15
2022-10-17T21:31:53.762Z,9.53
2022-10-17T21:34:25.250Z,9.73
2022-10-17T21:36:53.557Z,11.07
2022-10-17T21:39:22.234Z,11.60
2022-10-17T21:41:49.764Z,9.70
2022-10-17T21:44:19.767Z,10.67
2022-10-17T21:46:48.910Z,13.60
2022-10-17T21:49:18.720Z,13.68
2022-10-17T21:51:47.875Z,13.43
2022-10-17T21:54:16.720Z,13.07
2022-10-17T21:56:44.472Z,12.90
2022-10-17T21:59:12.327Z,10.68
2022-10-17T22:01:42.756Z,15.55
2022-10-17T22:04:15.990Z,13.30
2022-10-17T22:06:45.132Z,18.55
2022-10-17T22:09:21.804Z,11.17
2022-10-17T22:11:55.094Z,11.75
2022-10-17T22:14:27.461Z,13.40
2022-10-17T22:16:55.267Z,12.93
2022-10-17T22:19:25.737Z,10.55
2022-10-17T22:21:53.966Z,12.73
2022-10-17T22:26:54.654Z,9.90
2022-10-17T22:29:25.109Z,14.43
2022-10-17T22:31:52.596Z,14.13
2022-10-17T22:34:20.089Z,11.43
2022-10-17T22:36:49.147Z,15.48
2022-10-17T22:39:17.273Z,12.00
2022-10-17T22:41:44.753Z,13.07
2022-10-17T22:44:12.376Z,14.15
2022-10-17T22:46:42.375Z,12.97
2022-10-17T22:49:10.108Z,17.40
2022-10-17T22:51:37.566Z,11.23
2022-10-17T22:54:05.043Z,14.75
2022-10-17T22:56:32.622Z,14.40
2022-10-17T22:59:00.055Z,14.60
2022-10-17T23:01:27.542Z,12.70
2022-10-17T23:03:55.154Z,13.88
2022-10-17T23:06:22.916Z,12.98
2022-10-17T23:08:50.454Z,13.50
2022-10-17T23:11:18.143Z,13.57
2022-10-17T23:13:45.591Z,13.57
2022-10-17T23:16:13.186Z,12.98
2022-10-17T23:18:40.729Z,13.40
2022-10-17T23:21:08.789Z,12.77
2022-10-17T23:23:37.170Z,14.33
2022-10-17T23:26:10.077Z,13.50
2022-10-17T23:28:38.350Z,15.38
2022-10-17T23:31:20.338Z,14.98
2022-10-17T23:33:49.704Z,13.63
2022-10-17T23:36:19.740Z,12.63
2022-10-17T23:38:49.162Z,13.27
2022-10-17T23:41:17.397Z,14.98
2022-10-17T23:43:45.339Z,15.88
2022-10-17T23:46:12.831Z,14.20
2022-10-17T23:48:41.099Z,16.33
2022-10-17T23:51:09.849Z,12.77
2022-10-17T23:53:38.701Z,12.95
2022-10-17T23:56:07.374Z,12.18
2022-10-17T23:58:35.444Z,10.75
